ADDS METAR Data INFO
IDs: Format: Raw Decoded Include TAF

Data at: 0059 UTC 21 Oct 2017

KADG 210053Z AUTO 00000KT 10SM CLR 16/09 A3016 RMK AO2 SLP217 T01560094
KADG 202353Z AUTO 17004KT 10SM CLR 17/11 A3016 RMK AO2 SLP218 T01670106 10244 20167 55002
KADG 202253Z AUTO 20005KT 10SM CLR 20/11 A3016 RMK AO2 SLP217 T02000106
KADG 202153Z AUTO 21007KT 10SM CLR 22/10 A3016 RMK AO2 SLP216 T02220100
KADG 202053Z AUTO 23009KT 10SM CLR 24/09 A3017 RMK AO2 SLP218 T02390094 56020
KADG 201953Z AUTO 23010KT 10SM CLR 24/08 A3018 RMK AO2 SLP222 T02390083
KADG 201853Z AUTO 21009KT 10SM CLR 23/08 A3020 RMK AO2 SLP230 T02330083
KADG 201753Z AUTO 21006KT 10SM CLR 22/07 A3023 RMK AO2 SLP239 T02220072 10228 20039 58020
KADG 201653Z AUTO 21009KT 10SM CLR 21/06 A3026 RMK AO2 SLP250 T02060056
KADG 201553Z AUTO 21007KT 10SM CLR 19/03 A3028 RMK AO2 SLP257 T01890028
KADG 201453Z AUTO 19005KT 10SM CLR 16/03 A3029 RMK AO2 SLP261 T01560033 50003
KADG 201353Z AUTO 00000KT 10SM CLR 11/04 A3030 RMK AO2 SLP265 T01060039
KADG 201253Z AUTO 00000KT 10SM CLR 07/04 A3029 RMK AO2 SLP263 T00670039
KADG 201153Z AUTO 00000KT 10SM CLR 04/01 A3028 RMK AO2 SLP259 T00390011 10078 20039 51019
KADG 201053Z AUTO 00000KT 10SM CLR 04/01 A3027 RMK AO2 SLP254 T00440006
KADG 200953Z AUTO 00000KT 10SM CLR 05/01 A3025 RMK AO2 SLP246 T00500006
KADG 200853Z AUTO 00000KT 10SM CLR 07/00 A3022 RMK AO2 SLP237 T00670000 55000
KADG 200753Z AUTO 01003KT 10SM CLR 07/M01 A3021 RMK AO2 SLP234 T00721006
KADG 200653Z AUTO 00000KT 10SM CLR 06/01 A3022 RMK AO2 SLP237 T00560011
KADG 200553Z AUTO 00000KT 10SM CLR 06/01 A3022 RMK AO2 SLP237 T00610006 10144 20056 53008
KADG 200453Z AUTO 00000KT 10SM CLR 06/01 A3021 RMK AO2 SLP235 T00610006 402170056
KADG 200353Z AUTO 00000KT 10SM CLR 07/01 A3021 RMK AO2 SLP232 T00670011
KADG 200253Z AUTO 31004KT 10SM CLR 08/01 A3020 RMK AO2 SLP229 T00830006 53007
KADG 200153Z AUTO 00000KT 10SM CLR 09/01 A3019 RMK AO2 SLP226 T00890006
KADG 200053Z AUTO 31004KT 10SM CLR 13/M01 A3018 RMK AO2 SLP225 T01281006
KADG 192353Z AUTO 30004KT 10SM CLR 14/01 A3018 RMK AO2 SLP223 T01390011 10217 20139 53012
KADG 192253Z AUTO 30004KT 10SM CLR 17/01 A3016 RMK AO2 SLP216 T01670011
KADG 192153Z AUTO 30007KT 10SM CLR 19/01 A3014 RMK AO2 SLP209 T01940011
KADG 192053Z AUTO 30011KT 10SM CLR 20/01 A3014 RMK AO2 SLP208 T02000011 53001
KADG 191953Z AUTO 30009G18KT 10SM CLR 21/03 A3013 RMK AO2 SLP203 T02110028
KADG 191853Z AUTO 27008KT 10SM CLR 21/04 A3012 RMK AO2 SLP202 T02110044
KADG 191753Z AUTO 30007KT 10SM CLR 21/06 A3014 RMK AO2 SLP206 T02060056 10206 20083 58002
KADG 191653Z AUTO 29008KT 10SM CLR 19/07 A3015 RMK AO2 SLP213 T01890072
KADG 191553Z AUTO 29009KT 10SM CLR 18/09 A3015 RMK AO2 SLP212 T01780094
KADG 191453Z AUTO 28009KT 10SM CLR 15/09 A3014 RMK AO2 SLP209 T01500089 51015
KADG 191353Z AUTO 26009KT 10SM CLR 12/08 A3013 RMK AO2 SLP207 T01220078